createdAt,value
2023-03-14T00:00:23.137Z,96
2023-03-14T00:05:25.280Z,96
2023-03-14T00:10:31.292Z,96
2023-03-14T00:15:20.121Z,96
2023-03-14T00:20:27.716Z,96
2023-03-14T00:25:31.990Z,96
2023-03-14T00:30:20.890Z,96
2023-03-14T00:35:27.021Z,96
2023-03-14T00:40:33.151Z,96
2023-03-14T00:45:22.112Z,97
2023-03-14T00:50:28.223Z,97
2023-03-14T00:55:17.135Z,97
2023-03-14T01:00:26.543Z,97
2023-03-14T01:05:28.449Z,97
2023-03-14T01:10:17.863Z,97
2023-03-14T01:15:23.591Z,97
2023-03-14T01:20:29.780Z,97
2023-03-14T01:25:18.501Z,97
2023-03-14T01:30:24.857Z,97
2023-03-14T01:35:30.364Z,96
2023-03-14T01:40:20.891Z,96
2023-03-14T01:45:25.489Z,96
2023-03-14T01:50:32.691Z,96
2023-03-14T01:55:20.526Z,95
2023-03-14T02:00:27.987Z,95
2023-03-14T02:05:33.259Z,95
2023-03-14T02:10:22.356Z,94
2023-03-14T02:15:28.346Z,94
2023-03-14T02:20:17.459Z,94
2023-03-14T02:25:22.895Z,94
2023-03-14T02:30:28.842Z,94
2023-03-14T02:35:17.583Z,95
2023-03-14T02:40:24.799Z,95
2023-03-14T02:45:30.016Z,95
2023-03-14T02:50:19.056Z,95
2023-03-14T02:55:24.820Z,95
2023-03-14T03:00:34.927Z,95
2023-03-14T03:05:20.550Z,95
2023-03-14T03:10:26.349Z,95
2023-03-14T03:15:32.462Z,95
2023-03-14T03:20:21.670Z,95
2023-03-14T03:25:27.588Z,95
2023-03-14T03:30:16.502Z,94
2023-03-14T03:35:22.628Z,94
2023-03-14T03:40:28.622Z,94
2023-03-14T03:45:17.573Z,94
2023-03-14T03:50:23.950Z,94
2023-03-14T03:55:29.957Z,93
2023-03-14T04:00:21.897Z,93
2023-03-14T04:05:25.819Z,93
2023-03-14T04:10:37.265Z,93
2023-03-14T04:15:20.178Z,93
2023-03-14T04:20:26.566Z,93
2023-03-14T04:25:31.593Z,92
2023-03-14T04:30:20.892Z,92
2023-03-14T04:35:27.005Z,92
2023-03-14T04:40:32.764Z,93
2023-03-14T04:45:21.757Z,92
2023-03-14T04:50:27.789Z,92
2023-03-14T04:55:17.082Z,92
2023-03-14T05:00:27.308Z,92
2023-03-14T05:05:29.117Z,93
2023-03-14T05:10:18.161Z,92
2023-03-14T05:15:24.146Z,92
2023-03-14T05:20:30.270Z,92
2023-03-14T05:25:19.297Z,92
2023-03-14T05:30:25.471Z,92
2023-03-14T05:35:31.501Z,92
2023-03-14T05:40:20.697Z,92
2023-03-14T05:45:26.501Z,92
2023-03-14T05:50:32.833Z,92
2023-03-14T05:55:21.525Z,92
2023-03-14T06:00:29.361Z,92
2023-03-14T06:05:17.213Z,93
2023-03-14T06:10:22.925Z,92
2023-03-14T06:15:28.921Z,92
2023-03-14T06:20:19.121Z,92
2023-03-14T06:25:23.491Z,92
2023-03-14T06:30:29.682Z,92
2023-03-14T06:35:18.558Z,92
2023-03-14T06:40:24.831Z,92
2023-03-14T06:45:30.950Z,92
2023-03-14T06:50:19.956Z,92
2023-03-14T06:55:25.855Z,92
2023-03-14T07:00:34.299Z,92
2023-03-14T07:05:21.562Z,92
2023-03-14T07:10:27.306Z,92
2023-03-14T07:15:33.660Z,92
2023-03-14T07:20:22.578Z,91
2023-03-14T07:25:27.681Z,91
2023-03-14T07:30:16.713Z,91
2023-03-14T07:35:22.533Z,91
2023-03-14T07:40:28.942Z,90
2023-03-14T07:45:18.209Z,89
2023-03-14T07:50:23.969Z,88
2023-03-14T07:55:30.034Z,87
2023-03-14T08:00:22.844Z,86
2023-03-14T08:05:25.632Z,86
2023-03-14T08:10:31.553Z,86
2023-03-14T08:15:20.370Z,86
2023-03-14T08:20:27.831Z,86
2023-03-14T08:25:32.114Z,85
2023-03-14T08:30:20.992Z,85
2023-03-14T08:35:26.871Z,85
2023-03-14T08:40:32.986Z,84
2023-03-14T08:45:22.678Z,83
2023-03-14T08:50:28.396Z,84
2023-03-14T08:55:17.097Z,83
2023-03-14T09:00:23.910Z,83
2023-03-14T09:05:29.289Z,83
2023-03-14T09:10:18.184Z,83
2023-03-14T09:15:24.781Z,82
2023-03-14T09:20:30.391Z,82
2023-03-14T09:25:19.291Z,81
2023-03-14T09:30:25.415Z,81
2023-03-14T09:35:31.201Z,81
2023-03-14T09:40:20.934Z,80
2023-03-14T09:45:26.286Z,80
2023-03-14T09:50:32.348Z,80
2023-03-14T09:55:21.416Z,80
2023-03-14T10:00:31.400Z,80
2023-03-14T10:05:33.319Z,79
2023-03-14T10:10:21.844Z,78
2023-03-14T10:15:30.116Z,77
2023-03-14T10:20:17.105Z,77
2023-03-14T10:25:23.021Z,76
2023-03-14T10:30:29.144Z,76
2023-03-14T10:35:17.851Z,76
2023-03-14T10:40:25.056Z,76
2023-03-14T10:45:30.294Z,76
2023-03-14T10:50:18.958Z,77
2023-03-14T10:55:25.040Z,77
2023-03-14T11:00:34.570Z,77
2023-03-14T11:05:20.113Z,77
2023-03-14T11:10:25.824Z,77
2023-03-14T11:15:32.116Z,77
2023-03-14T11:20:21.180Z,77
2023-03-14T11:25:27.220Z,76
2023-03-14T11:30:33.329Z,77
2023-03-14T11:35:22.288Z,77
2023-03-14T11:40:28.347Z,78
2023-03-14T11:45:17.406Z,80
2023-03-14T11:50:23.425Z,83
2023-03-14T11:55:30.462Z,84
2023-03-14T12:00:23.363Z,84
2023-03-14T12:05:24.070Z,85
2023-03-14T12:10:31.763Z,85
2023-03-14T12:15:18.900Z,87
2023-03-14T12:20:26.093Z,88
2023-03-14T12:25:30.504Z,90
2023-03-14T12:30:19.551Z,91
2023-03-14T12:35:26.071Z,92
2023-03-14T12:40:31.790Z,92
2023-03-14T12:45:20.517Z,92
2023-03-14T12:50:26.539Z,92
2023-03-14T12:55:32.874Z,91
2023-03-14T13:00:23.098Z,88
2023-03-14T13:05:27.544Z,86
2023-03-14T13:10:16.800Z,85
2023-03-14T13:15:22.975Z,84
2023-03-14T13:20:28.972Z,84
2023-03-14T13:25:17.871Z,83
2023-03-14T13:30:23.843Z,82
2023-03-14T13:35:30.044Z,82
2023-03-14T13:40:19.270Z,81
2023-03-14T13:45:25.048Z,80
2023-03-14T13:50:31.124Z,78
2023-03-14T13:55:20.198Z,77
2023-03-14T14:00:29.555Z,76
2023-03-14T14:05:32.599Z,76
2023-03-14T14:10:21.534Z,76
2023-03-14T14:15:27.249Z,80
2023-03-14T14:20:33.679Z,87
2023-03-14T14:25:22.463Z,91
2023-03-14T14:30:28.403Z,93
2023-03-14T14:35:17.479Z,93
2023-03-14T14:40:24.217Z,92
2023-03-14T14:45:29.540Z,92
2023-03-14T14:50:18.411Z,93
2023-03-14T14:55:24.471Z,93
2023-03-14T15:00:33.103Z,93
2023-03-14T15:05:19.353Z,94
2023-03-14T15:10:25.958Z,94
2023-03-14T15:15:31.505Z,95
2023-03-14T15:20:22.184Z,95
2023-03-14T15:25:51.562Z,95
2023-03-14T15:30:32.163Z,95
2023-03-14T15:35:21.069Z,94
2023-03-14T15:40:30.558Z,91
2023-03-14T15:45:18.461Z,91
2023-03-14T15:50:22.031Z,91
2023-03-14T15:55:28.306Z,91
2023-03-14T16:00:22.165Z,90
2023-03-14T16:05:23.973Z,90
2023-03-14T16:10:30.496Z,89
2023-03-14T16:15:18.514Z,89
2023-03-14T16:20:29.352Z,89
2023-03-14T16:25:29.970Z,89
2023-03-14T16:30:18.993Z,90
2023-03-14T16:35:25.326Z,91
2023-03-14T16:40:31.575Z,92
2023-03-14T16:45:20.449Z,91
2023-03-14T16:50:26.199Z,90
2023-03-14T16:55:32.616Z,89
2023-03-14T17:00:25.055Z,88
2023-03-14T17:05:27.949Z,88
2023-03-14T17:10:33.675Z,89
2023-03-14T17:15:22.367Z,90
2023-03-14T17:20:28.650Z,91
2023-03-14T17:25:17.583Z,91
2023-03-14T17:30:23.895Z,91
2023-03-14T17:35:29.794Z,90
2023-03-14T17:40:19.090Z,91
2023-03-14T17:45:24.868Z,91
2023-03-14T17:50:30.681Z,91
2023-03-14T17:55:19.719Z,92
2023-03-14T18:00:29.342Z,93
2023-03-14T18:05:32.384Z,94
2023-03-14T18:10:20.888Z,94
2023-03-14T18:15:26.724Z,94
2023-03-14T18:20:32.851Z,94
2023-03-14T18:25:22.089Z,95
2023-03-14T18:30:28.105Z,94
2023-03-14T18:35:17.171Z,94
2023-03-14T18:40:24.608Z,94
2023-03-14T18:45:29.308Z,94
2023-03-14T18:50:19.318Z,94
2023-03-14T18:55:24.419Z,94
2023-03-14T19:00:33.620Z,94
2023-03-14T19:05:18.534Z,94
2023-03-14T19:10:24.573Z,95
2023-03-14T19:15:30.830Z,95
2023-03-14T19:20:21.625Z,95
2023-03-14T19:25:25.828Z,94
2023-03-14T19:30:32.274Z,94
2023-03-14T19:35:20.587Z,94
2023-03-14T19:40:27.570Z,94
2023-03-14T19:45:35.533Z,94
2023-03-14T19:50:21.795Z,94
2023-03-14T19:55:27.897Z,94
2023-03-14T20:00:18.264Z,95
2023-03-14T20:05:22.609Z,95
2023-03-14T20:10:28.722Z,95
2023-03-14T20:15:17.672Z,95
2023-03-14T20:20:23.612Z,95
2023-03-14T20:25:29.925Z,96
2023-03-14T20:30:18.850Z,96
2023-03-14T20:35:25.230Z,96
2023-03-14T20:40:31.409Z,96
2023-03-14T20:45:20.052Z,96
2023-03-14T20:50:26.295Z,96
2023-03-14T20:55:32.386Z,96
2023-03-14T21:00:21.976Z,96
2023-03-14T21:05:26.654Z,96
2023-03-14T21:10:32.662Z,96
2023-03-14T21:15:22.007Z,96
2023-03-14T21:20:28.096Z,96
2023-03-14T21:25:16.227Z,96
2023-03-14T21:30:22.363Z,96
2023-03-14T21:35:28.632Z,96
2023-03-14T21:40:17.954Z,96
2023-03-14T21:45:23.762Z,96
2023-03-14T21:50:29.536Z,96
2023-03-14T21:55:18.576Z,97
2023-03-14T22:00:26.902Z,97
2023-03-14T22:05:31.077Z,97
2023-03-14T22:10:19.853Z,97
2023-03-14T22:15:25.895Z,97
2023-03-14T22:20:34.223Z,97
2023-03-14T22:25:20.922Z,97
2023-03-14T22:30:26.980Z,97
2023-03-14T22:35:33.310Z,97
2023-03-14T22:40:23.501Z,97
2023-03-14T22:45:28.505Z,97
2023-03-14T22:50:16.915Z,97
2023-03-14T22:55:23.007Z,97
2023-03-14T23:00:32.114Z,97
2023-03-14T23:05:17.622Z,97
2023-03-14T23:10:23.737Z,97
2023-03-14T23:15:29.616Z,97
2023-03-14T23:20:21.459Z,97
2023-03-14T23:25:24.618Z,97
2023-03-14T23:30:30.579Z,97
2023-03-14T23:35:19.390Z,97
2023-03-14T23:40:25.891Z,97
2023-03-14T23:45:32.002Z,97
2023-03-14T23:50:20.594Z,97
2023-03-14T23:55:26.725Z,97
